createdAt,value
2019-02-09T00:00:50.354Z,61.20
2019-02-09T00:03:18.744Z,61.13
2019-02-09T00:05:47.360Z,61.00
2019-02-09T00:08:15.832Z,60.95
2019-02-09T00:10:44.306Z,60.95
2019-02-09T00:13:13.038Z,61.17
2019-02-09T00:15:41.660Z,61.17
2019-02-09T00:18:10.446Z,61.47
2019-02-09T00:20:38.921Z,63.05
2019-02-09T00:23:07.800Z,66.79
2019-02-09T00:25:36.193Z,68.51
2019-02-09T00:28:05.229Z,68.51
2019-02-09T00:30:34.057Z,70.54
2019-02-09T00:33:02.505Z,70.54
2019-02-09T00:35:31.162Z,71.65
2019-02-09T00:37:59.561Z,72.51
2019-02-09T00:40:29.710Z,73.53
2019-02-09T00:42:58.463Z,73.66
2019-02-09T00:45:28.255Z,73.66
2019-02-09T00:47:56.717Z,74.03
2019-02-09T00:50:25.629Z,74.48
2019-02-09T00:52:54.248Z,74.76
2019-02-09T00:55:26.688Z,74.91
2019-02-09T00:57:55.320Z,75.08
2019-02-09T01:00:31.782Z,74.70
2019-02-09T01:03:00.604Z,74.70
2019-02-09T01:05:37.982Z,75.36
2019-02-09T01:08:06.496Z,75.36
2019-02-09T01:10:34.947Z,75.09
2019-02-09T01:13:04.073Z,75.44
2019-02-09T01:15:32.471Z,75.69
2019-02-09T01:18:01.344Z,75.85
2019-02-09T01:20:30.673Z,75.85
2019-02-09T01:23:00.293Z,76.34
2019-02-09T01:25:28.924Z,76.34
2019-02-09T01:27:57.388Z,76.97
2019-02-09T01:30:27.489Z,77.58
2019-02-09T01:32:56.316Z,77.70
2019-02-09T01:35:25.640Z,77.87
2019-02-09T01:37:54.696Z,78.07
2019-02-09T01:40:25.457Z,78.10
2019-02-09T01:42:54.769Z,78.09
2019-02-09T01:45:33.302Z,77.59
2019-02-09T01:48:02.036Z,77.42
2019-02-09T01:50:34.014Z,77.26
2019-02-09T01:53:02.405Z,77.26
2019-02-09T01:55:30.866Z,77.27
2019-02-09T01:58:00.190Z,77.17
2019-02-09T02:00:33.746Z,76.86
2019-02-09T02:03:02.431Z,76.73
2019-02-09T02:05:31.151Z,76.87
2019-02-09T02:07:59.786Z,76.59
2019-02-09T02:10:33.657Z,76.63
2019-02-09T02:13:03.104Z,76.52
2019-02-09T02:15:32.665Z,76.52
2019-02-09T02:18:01.467Z,76.84
2019-02-09T02:20:31.991Z,76.84
2019-02-09T02:23:00.589Z,77.01
2019-02-09T02:25:28.984Z,77.62
2019-02-09T02:27:57.382Z,77.70
2019-02-09T02:30:34.613Z,77.70
2019-02-09T02:33:03.502Z,78.34
2019-02-09T02:35:32.183Z,78.34
2019-02-09T02:38:01.119Z,78.50
2019-02-09T02:40:30.376Z,79.00
2019-02-09T02:42:58.792Z,79.09
2019-02-09T02:45:27.752Z,79.25
2019-02-09T02:47:56.262Z,79.35
2019-02-09T02:50:25.212Z,79.47
2019-02-09T02:52:54.118Z,79.49
2019-02-09T02:55:31.851Z,79.55
2019-02-09T02:58:00.498Z,79.66
2019-02-09T03:00:33.021Z,79.84
2019-02-09T03:03:02.482Z,80.06
2019-02-09T03:05:30.978Z,80.27
2019-02-09T03:07:59.467Z,79.96
2019-02-09T03:10:27.905Z,79.96
2019-02-09T03:12:56.379Z,80.20
2019-02-09T03:15:30.527Z,80.24
2019-02-09T03:17:59.478Z,80.24
2019-02-09T03:20:28.176Z,80.27
2019-02-09T03:22:56.559Z,80.13
2019-02-09T03:25:30.527Z,80.27
2019-02-09T03:27:59.070Z,80.05
2019-02-09T03:30:27.791Z,80.05
2019-02-09T03:32:56.647Z,80.07
2019-02-09T03:35:25.682Z,80.43
2019-02-09T03:37:54.059Z,80.43
2019-02-09T03:40:29.041Z,80.22
2019-02-09T03:42:57.458Z,79.98
2019-02-09T03:45:28.608Z,79.98
2019-02-09T03:47:57.436Z,79.58
2019-02-09T03:50:28.383Z,79.45
2019-02-09T03:52:56.965Z,79.18
2019-02-09T03:55:25.364Z,79.04
2019-02-09T03:57:53.822Z,79.04
2019-02-09T04:00:24.258Z,78.85
2019-02-09T04:02:53.248Z,78.85
2019-02-09T04:05:21.701Z,78.11
2019-02-09T04:07:50.745Z,78.11
2019-02-09T04:10:21.789Z,77.22
2019-02-09T04:12:50.179Z,75.71
2019-02-09T04:15:20.590Z,75.71
2019-02-09T04:17:49.184Z,75.68
2019-02-09T04:20:19.760Z,75.81
2019-02-09T04:22:48.480Z,74.91
2019-02-09T04:25:19.223Z,75.11
2019-02-09T04:27:47.665Z,75.12
2019-02-09T04:30:19.171Z,74.19
2019-02-09T04:32:47.551Z,74.19
2019-02-09T04:35:16.072Z,73.86
2019-02-09T04:37:44.537Z,73.83
2019-02-09T04:40:21.503Z,73.70
2019-02-09T04:42:49.980Z,73.70
2019-02-09T04:45:19.310Z,73.46
2019-02-09T04:47:47.978Z,73.28
2019-02-09T04:50:17.531Z,72.88
2019-02-09T04:52:45.911Z,72.88
2019-02-09T04:55:20.234Z,72.35
2019-02-09T04:57:49.043Z,73.11
2019-02-09T05:00:33.012Z,73.11
2019-02-09T05:03:01.487Z,73.79
2019-02-09T05:05:31.139Z,73.79
2019-02-09T05:07:59.591Z,74.21
2019-02-09T05:10:28.162Z,74.78
2019-02-09T05:12:56.623Z,74.43
2019-02-09T05:15:25.085Z,74.16
2019-02-09T05:17:54.001Z,73.89
2019-02-09T05:20:25.281Z,73.89
2019-02-09T05:22:55.270Z,73.56
2019-02-09T05:25:23.742Z,73.62
2019-02-09T05:27:52.117Z,73.92
2019-02-09T05:30:23.363Z,73.92
2019-02-09T05:32:51.828Z,73.75
2019-02-09T05:35:20.235Z,72.59
2019-02-09T05:37:48.837Z,72.59
2019-02-09T05:40:27.478Z,72.16
2019-02-09T05:42:55.946Z,72.16
2019-02-09T05:45:30.230Z,72.31
2019-02-09T05:47:58.693Z,72.18
2019-02-09T05:50:27.342Z,72.00
2019-02-09T05:52:55.735Z,72.00
2019-02-09T05:55:24.214Z,71.34
2019-02-09T05:57:53.125Z,71.23
2019-02-09T06:00:40.808Z,71.09
2019-02-09T06:03:09.666Z,71.09
2019-02-09T06:05:38.077Z,70.73
2019-02-09T06:08:06.735Z,70.73
2019-02-09T06:10:35.204Z,70.57
2019-02-09T06:13:04.309Z,70.19
2019-02-09T06:15:32.692Z,69.76
2019-02-09T06:18:01.402Z,69.38
2019-02-09T06:20:30.523Z,69.38
2019-02-09T06:22:59.254Z,70.19
2019-02-09T06:25:27.898Z,69.80
2019-02-09T06:27:56.419Z,69.61
2019-02-09T06:30:30.136Z,69.61
2019-02-09T06:32:58.759Z,69.12
2019-02-09T06:35:27.508Z,69.21
2019-02-09T06:37:56.411Z,69.17
2019-02-09T06:40:25.623Z,69.63
2019-02-09T06:42:54.089Z,69.44
2019-02-09T06:45:27.577Z,69.44
2019-02-09T06:48:15.392Z,69.22
2019-02-09T06:50:44.097Z,69.40
2019-02-09T06:53:12.496Z,69.18
2019-02-09T06:55:40.930Z,68.73
2019-02-09T06:58:09.423Z,68.23
2019-02-09T07:00:37.836Z,67.13
2019-02-09T07:03:06.304Z,66.91
2019-02-09T07:05:34.699Z,66.91
2019-02-09T07:08:03.555Z,66.40
2019-02-09T07:10:31.939Z,65.88
2019-02-09T07:13:00.322Z,65.50
2019-02-09T07:15:30.767Z,65.50
2019-02-09T07:17:59.156Z,65.36
2019-02-09T07:20:27.600Z,65.05
2019-02-09T07:22:56.052Z,64.55
2019-02-09T07:25:24.867Z,64.55
2019-02-09T07:27:53.588Z,64.27
2019-02-09T07:30:24.755Z,63.14
2019-02-09T07:32:53.894Z,63.14
2019-02-09T07:35:22.374Z,63.73
2019-02-09T07:37:51.107Z,63.52
2019-02-09T07:40:24.689Z,63.33
2019-02-09T07:42:53.515Z,62.55
2019-02-09T07:45:24.466Z,62.55
2019-02-09T07:47:52.980Z,62.18
2019-02-09T07:50:23.785Z,62.18
2019-02-09T07:52:52.230Z,62.55
2019-02-09T07:55:21.444Z,62.19
2019-02-09T07:57:50.223Z,61.38
2019-02-09T08:00:35.110Z,61.38
2019-02-09T08:03:03.813Z,61.07
2019-02-09T08:05:33.349Z,60.83
2019-02-09T08:08:01.862Z,61.03
2019-02-09T08:10:35.441Z,61.03
2019-02-09T08:27:09.249Z,61.76
2019-02-09T08:29:37.641Z,61.77
2019-02-09T08:32:12.521Z,61.93
2019-02-09T08:34:36.827Z,61.46
2019-02-09T08:37:05.279Z,61.46
2019-02-09T08:39:33.670Z,61.46
2019-02-09T08:42:02.057Z,61.72
2019-02-09T08:44:30.443Z,60.71
2019-02-09T08:46:58.866Z,60.71
2019-02-09T08:49:27.269Z,61.21
2019-02-09T08:51:55.648Z,60.51
2019-02-09T08:54:24.042Z,59.05
2019-02-09T08:56:52.428Z,59.05
2019-02-09T08:59:20.860Z,59.03
2019-02-09T09:01:49.310Z,59.12
2019-02-09T09:04:17.689Z,59.12
2019-02-09T09:06:46.108Z,58.19
2019-02-09T09:09:14.498Z,58.54
2019-02-09T09:11:43.157Z,58.54
2019-02-09T09:14:11.747Z,57.72
2019-02-09T09:16:40.127Z,57.20
2019-02-09T09:19:08.511Z,56.85
2019-02-09T09:21:36.902Z,56.83
2019-02-09T09:24:05.361Z,55.87
2019-02-09T09:26:33.933Z,54.97
2019-02-09T09:29:02.323Z,55.20
2019-02-09T09:31:30.868Z,54.49
2019-02-09T09:33:59.383Z,54.43
2019-02-09T09:36:27.774Z,53.69
2019-02-09T09:38:56.196Z,52.97
2019-02-09T09:41:24.579Z,53.21
2019-02-09T09:43:53.100Z,53.55
2019-02-09T09:46:21.618Z,52.92
2019-02-09T09:48:50.061Z,52.92
2019-02-09T09:51:18.443Z,53.69
2019-02-09T09:53:46.843Z,54.27
2019-02-09T09:56:15.267Z,54.23
2019-02-09T09:58:43.651Z,54.30
2019-02-09T10:01:12.150Z,54.37
2019-02-09T10:03:40.812Z,54.30
2019-02-09T10:06:09.192Z,54.27
2019-02-09T10:08:37.820Z,54.17
2019-02-09T10:11:06.236Z,54.85
2019-02-09T10:13:34.960Z,54.64
2019-02-09T10:16:03.351Z,55.18
2019-02-09T10:18:31.844Z,55.02
2019-02-09T10:21:00.473Z,53.63
2019-02-09T10:23:28.891Z,52.94
2019-02-09T10:25:57.890Z,53.79
2019-02-09T10:28:26.944Z,52.89
2019-02-09T10:30:58.816Z,52.92
2019-02-09T10:33:27.550Z,53.86
2019-02-09T10:35:56.377Z,53.32
2019-02-09T10:38:24.774Z,53.75
2019-02-09T10:40:53.201Z,53.75
2019-02-09T10:43:21.544Z,53.46
2019-02-09T10:45:49.938Z,53.84
2019-02-09T10:48:18.313Z,53.59
2019-02-09T10:50:47.594Z,53.37
2019-02-09T10:53:15.976Z,53.91
2019-02-09T10:55:44.555Z,53.62
2019-02-09T10:58:12.940Z,53.69
2019-02-09T11:00:47.072Z,54.08
2019-02-09T11:03:15.828Z,53.50
2019-02-09T11:05:44.414Z,53.77
2019-02-09T11:08:12.927Z,53.46
2019-02-09T11:10:41.558Z,54.08
2019-02-09T11:13:10.180Z,53.04
2019-02-09T11:15:38.557Z,52.29
2019-02-09T11:18:07.590Z,52.48
2019-02-09T11:20:35.969Z,52.34
2019-02-09T11:23:04.888Z,51.99
2019-02-09T11:25:33.442Z,51.61
2019-02-09T11:28:01.829Z,51.10
2019-02-09T11:30:30.448Z,50.73
2019-02-09T11:33:01.872Z,50.84
2019-02-09T11:35:30.053Z,51.15
2019-02-09T11:37:58.438Z,50.04
2019-02-09T11:40:32.179Z,50.29
2019-02-09T11:43:01.421Z,50.97
2019-02-09T11:45:31.839Z,50.41
2019-02-09T11:48:00.619Z,50.48
2019-02-09T11:50:29.010Z,50.47
2019-02-09T11:52:57.651Z,50.92
2019-02-09T11:55:26.037Z,50.49
2019-02-09T11:57:54.729Z,50.45
2019-02-09T12:00:34.994Z,51.11
2019-02-09T12:03:13.890Z,51.26
2019-02-09T12:05:34.489Z,50.90
2019-02-09T12:08:02.999Z,51.75
2019-02-09T12:10:31.658Z,52.10
2019-02-09T12:13:00.044Z,51.90
2019-02-09T12:15:31.125Z,52.05
2019-02-09T12:17:59.580Z,51.64
2019-02-09T12:20:28.509Z,51.37
2019-02-09T12:22:56.963Z,51.64
2019-02-09T12:25:38.978Z,51.01
2019-02-09T12:28:10.145Z,51.71
2019-02-09T12:30:40.937Z,51.29
2019-02-09T12:33:11.457Z,51.72
2019-02-09T12:35:41.170Z,50.64
2019-02-09T12:38:10.188Z,51.25
2019-02-09T12:40:40.559Z,50.81
2019-02-09T12:43:09.191Z,51.49
2019-02-09T12:45:42.075Z,51.66
2019-02-09T12:48:11.933Z,51.32
2019-02-09T12:50:40.488Z,51.27
2019-02-09T12:53:09.079Z,51.12
2019-02-09T12:55:37.885Z,50.62
2019-02-09T12:58:07.122Z,51.34
2019-02-09T13:00:39.509Z,52.64
2019-02-09T13:03:10.527Z,52.31
2019-02-09T13:05:39.016Z,51.57
2019-02-09T13:08:07.400Z,50.89
2019-02-09T13:10:35.892Z,51.00
2019-02-09T13:13:06.329Z,50.68
2019-02-09T13:15:35.615Z,50.10
2019-02-09T13:18:04.480Z,49.25
2019-02-09T13:20:33.935Z,48.30
2019-02-09T13:23:02.332Z,48.48
2019-02-09T13:25:31.219Z,46.96
2019-02-09T13:27:59.590Z,47.07
2019-02-09T13:30:36.362Z,47.22
2019-02-09T13:33:08.006Z,47.20
2019-02-09T13:35:36.778Z,46.99
2019-02-09T13:38:05.342Z,46.63
2019-02-09T13:40:33.885Z,46.41
2019-02-09T13:43:02.331Z,46.54
2019-02-09T13:45:33.522Z,45.24
2019-02-09T13:48:02.298Z,45.66
2019-02-09T13:50:32.427Z,45.70
2019-02-09T13:53:00.832Z,46.04
2019-02-09T13:55:29.300Z,45.97
2019-02-09T13:57:57.690Z,46.70
2019-02-09T14:00:31.349Z,47.34
2019-02-09T14:03:00.630Z,46.98
2019-02-09T14:05:29.635Z,45.88
2019-02-09T14:07:59.096Z,46.26
2019-02-09T14:10:30.822Z,47.25
2019-02-09T14:12:59.466Z,46.69
2019-02-09T14:15:37.027Z,47.02
2019-02-09T14:18:08.246Z,46.85
2019-02-09T14:20:36.765Z,48.08
2019-02-09T14:23:06.126Z,47.72
2019-02-09T14:25:34.744Z,48.22
2019-02-09T14:28:03.680Z,48.44
2019-02-09T14:30:37.474Z,48.27
2019-02-09T14:33:08.597Z,48.30
2019-02-09T14:35:37.332Z,48.48
2019-02-09T14:38:06.158Z,48.21
2019-02-09T14:40:34.819Z,48.31
2019-02-09T14:43:03.742Z,48.43
2019-02-09T14:45:40.460Z,48.98
2019-02-09T14:48:09.047Z,48.75
2019-02-09T14:50:37.948Z,49.11
2019-02-09T14:53:08.344Z,49.45
2019-02-09T14:55:39.314Z,49.87
2019-02-09T14:58:08.851Z,50.07
2019-02-09T15:00:45.700Z,50.00
2019-02-09T15:03:15.431Z,50.38
2019-02-09T15:05:43.830Z,50.64
2019-02-09T15:08:12.424Z,51.25
2019-02-09T15:10:40.807Z,51.58
2019-02-09T15:13:12.127Z,51.90
2019-02-09T15:15:58.854Z,52.41
2019-02-09T15:18:27.238Z,52.07
2019-02-09T15:21:11.288Z,52.59
2019-02-09T15:23:39.668Z,52.12
2019-02-09T15:26:08.319Z,52.10
2019-02-09T15:28:37.084Z,52.51
2019-02-09T15:31:06.220Z,52.15
2019-02-09T15:33:34.599Z,52.40
2019-02-09T15:36:03.060Z,52.29
2019-02-09T15:38:31.452Z,52.64
2019-02-09T15:40:59.845Z,52.53
2019-02-09T15:43:28.221Z,52.53
2019-02-09T15:45:56.650Z,52.58
2019-02-09T15:48:25.039Z,52.55
2019-02-09T15:50:53.435Z,52.76
2019-02-09T15:53:21.878Z,52.40
2019-02-09T15:55:50.367Z,52.19
2019-02-09T15:58:19.137Z,52.11
2019-02-09T16:00:48.047Z,52.50
2019-02-09T16:03:16.641Z,52.36
2019-02-09T16:05:45.296Z,53.01
2019-02-09T16:08:14.063Z,52.60
2019-02-09T16:10:42.529Z,52.63
2019-02-09T16:13:10.929Z,52.63
2019-02-09T16:15:39.315Z,53.26
2019-02-09T16:18:08.062Z,53.05
2019-02-09T16:20:36.911Z,52.37
2019-02-09T16:23:05.883Z,52.65
2019-02-09T16:25:34.639Z,52.78
2019-02-09T16:28:03.087Z,52.89
2019-02-09T16:30:32.877Z,52.53
2019-02-09T16:33:01.334Z,52.71
2019-02-09T16:35:31.853Z,52.82
2019-02-09T16:38:00.350Z,52.14
2019-02-09T16:40:31.942Z,52.50
2019-02-09T16:43:00.708Z,52.17
2019-02-09T16:45:36.902Z,52.28
2019-02-09T16:48:07.946Z,51.75
2019-02-09T16:50:37.026Z,51.54
2019-02-09T16:53:06.153Z,52.12
2019-02-09T16:55:34.603Z,52.12
2019-02-09T16:58:03.138Z,51.97
2019-02-09T17:00:37.305Z,51.69
2019-02-09T17:03:07.138Z,51.89
2019-02-09T17:05:35.910Z,51.93
2019-02-09T17:08:04.942Z,52.03
2019-02-09T17:10:33.414Z,51.75
2019-02-09T17:13:01.922Z,51.45
2019-02-09T17:15:30.754Z,51.43
2019-02-09T17:17:59.169Z,51.13
2019-02-09T17:20:27.902Z,51.03
2019-02-09T17:22:56.295Z,51.87
2019-02-09T17:25:26.170Z,50.82
2019-02-09T17:27:54.567Z,50.81
2019-02-09T17:30:28.288Z,50.93
2019-02-09T17:32:56.667Z,51.00
2019-02-09T17:35:26.937Z,50.75
2019-02-09T17:37:57.438Z,50.75
2019-02-09T17:40:37.362Z,51.48
2019-02-09T17:43:07.097Z,51.07
2019-02-09T17:45:44.972Z,51.61
2019-02-09T17:48:13.482Z,51.47
2019-02-09T17:50:41.871Z,51.75
2019-02-09T17:53:10.250Z,51.85
2019-02-09T17:55:38.637Z,51.71
2019-02-09T17:58:07.208Z,51.60
2019-02-09T18:00:37.660Z,51.94
2019-02-09T18:03:06.118Z,51.74
2019-02-09T18:05:34.819Z,51.74
2019-02-09T18:08:03.601Z,52.02
2019-02-09T18:10:32.168Z,52.20
2019-02-09T18:13:00.618Z,52.09
2019-02-09T18:15:28.996Z,52.41
2019-02-09T18:17:57.439Z,52.70
2019-02-09T18:20:25.833Z,52.99
2019-02-09T18:22:54.216Z,53.26
2019-02-09T18:25:23.361Z,53.41
2019-02-09T18:27:51.917Z,54.08
2019-02-09T18:30:27.960Z,54.72
2019-02-09T18:32:56.342Z,54.45
2019-02-09T18:35:24.738Z,55.33
2019-02-09T18:37:53.194Z,55.33
2019-02-09T18:40:28.348Z,55.71
2019-02-09T18:42:56.920Z,55.55
2019-02-09T18:45:30.935Z,56.05
2019-02-09T18:47:59.427Z,55.87
2019-02-09T18:50:32.156Z,55.53
2019-02-09T18:53:01.966Z,55.79
2019-02-09T18:55:31.345Z,55.79
2019-02-09T18:58:00.012Z,55.64
2019-02-09T19:00:42.479Z,55.64
2019-02-09T19:03:11.306Z,56.32
2019-02-09T19:05:39.819Z,56.73
2019-02-09T19:08:09.413Z,56.52
2019-02-09T19:10:38.121Z,56.41
2019-02-09T19:13:06.782Z,56.41
2019-02-09T19:15:35.677Z,56.48
2019-02-09T19:18:05.701Z,56.79
2019-02-09T19:20:43.042Z,56.79
2019-02-09T19:23:11.561Z,56.79
2019-02-09T19:25:40.021Z,56.79
2019-02-09T19:28:08.624Z,56.50
2019-02-09T19:30:37.082Z,56.97
2019-02-09T19:33:07.106Z,56.97
2019-02-09T19:35:35.643Z,56.76
2019-02-09T19:38:04.503Z,56.98
2019-02-09T19:40:32.964Z,57.09
2019-02-09T19:43:01.407Z,57.04
2019-02-09T19:45:40.268Z,57.18
2019-02-09T19:48:09.265Z,57.32
2019-02-09T19:50:38.053Z,57.46
2019-02-09T19:53:07.012Z,57.46
2019-02-09T19:55:38.465Z,57.59
2019-02-09T19:58:07.327Z,58.25
2019-02-09T20:00:41.950Z,58.25
2019-02-09T20:03:10.635Z,58.86
2019-02-09T20:05:39.021Z,58.85
2019-02-09T20:08:09.424Z,59.20
2019-02-09T20:10:44.181Z,59.39
2019-02-09T20:13:14.194Z,59.84
2019-02-09T20:15:42.734Z,59.99
2019-02-09T20:18:11.811Z,59.99
2019-02-09T20:20:46.771Z,60.23
2019-02-09T20:23:10.773Z,60.42
2019-02-09T20:25:39.222Z,60.68
2019-02-09T20:28:07.866Z,61.00
2019-02-09T20:30:38.376Z,60.68
2019-02-09T20:33:07.309Z,60.68
2019-02-09T20:35:36.040Z,61.11
2019-02-09T20:38:06.573Z,61.11
2019-02-09T20:40:37.212Z,61.37
2019-02-09T20:43:08.036Z,61.41
2019-02-09T20:45:36.695Z,61.41
2019-02-09T20:48:06.505Z,61.33
2019-02-09T20:50:34.976Z,61.55
2019-02-09T20:53:03.439Z,61.55
2019-02-09T20:55:31.832Z,61.60
2019-02-09T20:58:00.216Z,61.73
2019-02-09T21:00:32.767Z,61.73
2019-02-09T21:03:01.170Z,61.78
2019-02-09T21:05:36.103Z,61.78
2019-02-09T21:08:00.028Z,62.10
2019-02-09T21:10:34.299Z,61.88
2019-02-09T21:13:02.759Z,61.88
2019-02-09T21:15:31.500Z,62.15
2019-02-09T21:17:59.892Z,62.15
2019-02-09T21:20:28.368Z,61.98
2019-02-09T21:22:56.749Z,62.22
2019-02-09T21:25:30.290Z,62.39
2019-02-09T21:27:59.122Z,62.22
2019-02-09T21:30:28.054Z,62.16
2019-02-09T21:32:57.718Z,62.18
2019-02-09T21:35:26.351Z,62.18
2019-02-09T21:37:54.806Z,62.30
2019-02-09T21:40:25.042Z,62.50
2019-02-09T21:42:53.596Z,62.68
2019-02-09T21:45:23.630Z,62.68
2019-02-09T21:47:52.258Z,62.85
2019-02-09T21:50:29.425Z,62.83
2019-02-09T21:52:57.824Z,62.80
2019-02-09T21:55:26.546Z,62.80
2019-02-09T21:57:55.156Z,63.47
2019-02-09T22:00:26.044Z,63.47
2019-02-09T22:02:55.511Z,63.64
2019-02-09T22:05:23.955Z,63.64
2019-02-09T22:07:52.383Z,63.80
2019-02-09T22:10:29.421Z,63.59
2019-02-09T22:12:54.251Z,63.76
2019-02-09T22:15:24.865Z,63.85
2019-02-09T22:17:53.295Z,63.53
2019-02-09T22:20:22.620Z,63.67
2019-02-09T22:22:51.857Z,63.58
2019-02-09T22:25:24.825Z,63.58
2019-02-09T22:27:53.517Z,63.78
2019-02-09T22:30:23.950Z,63.78
2019-02-09T22:32:52.828Z,63.88
2019-02-09T22:35:21.494Z,63.88
2019-02-09T22:37:50.336Z,63.78
2019-02-09T22:40:20.804Z,63.85
2019-02-09T22:42:49.496Z,63.85
2019-02-09T22:45:20.211Z,63.85
2019-02-09T22:47:48.928Z,64.21
2019-02-09T22:50:25.819Z,64.21
2019-02-09T22:52:54.784Z,64.27
2019-02-09T22:55:24.303Z,64.45
2019-02-09T22:57:52.902Z,64.64
2019-02-09T23:00:57.962Z,64.37
2019-02-09T23:03:32.085Z,64.52
2019-02-09T23:06:12.712Z,64.52
2019-02-09T23:08:46.821Z,64.39
2019-02-09T23:11:15.808Z,64.39
2019-02-09T23:13:44.188Z,64.53
2019-02-09T23:16:12.577Z,64.71
2019-02-09T23:18:41.145Z,64.71
2019-02-09T23:21:09.837Z,64.96
2019-02-09T23:23:38.339Z,64.96
2019-02-09T23:26:07.003Z,64.89
2019-02-09T23:28:35.689Z,64.79
2019-02-09T23:31:04.149Z,64.79
2019-02-09T23:33:32.957Z,64.79
2019-02-09T23:36:01.643Z,65.20
2019-02-09T23:38:30.331Z,65.05
2019-02-09T23:40:58.732Z,64.88
2019-02-09T23:43:27.409Z,64.88
2019-02-09T23:45:56.112Z,65.08
2019-02-09T23:48:24.773Z,65.08
2019-02-09T23:50:53.464Z,64.82
2019-02-09T23:53:21.874Z,64.50
2019-02-09T23:55:50.255Z,64.50
2019-02-09T23:58:18.714Z,64.60
